Bache, Oklahoma
Current Conditions -  °F | °C
As of 5:53 AM on Saturday 27 Dec 2014 (Local Time) from KMLC Reporting Station
Light Rain Light Rain  
Wind Chill: 30°   Ceiling: 1200
Heat Index: 38°   Visibility: 8mi
Dew Point: 36°   Wind: 12mph
Humidity: 93%   Direction: 350°N
Pressure: 30.2"   Gusts: NA
Location:  34.9351°N, 95.8929°W
Report Text: KMLC 271153Z AUTO 35010KT 8SM -RA BKN012 OVC043 03/02 A3020 RMK AO2 SLP226 P0000 60042 70043 T00330022 10128 20033 53029
Loading
Personal Weather Stations






























Interactive Weather Map New forecast layout! Learn more

10-Day Weather Forecast

Advertisements
Track Severe Weather on mobile